To NAV CANADA Home Page Login to a new session Search on AWWS site Feedback and Comments Disclaimer Vers la page française équivalente Tips FAQ What's new on the site To the Forecasts and Observations / NOTAM section To "File a Flight Plan" website Publications and other links Update of the User's profile FIC Telephone Numbers My Weather Data Folder Route Weather Data Regional Weather Data Local Weather Data To the Forecasts and Observations / NOTAM section
Request Generated 09/01/2015 at 12:03:41 UTC . Weather information available at that time is displayed.

METAR/TAF

KINGSTON/ON    

METAR CYGK 011100Z 03002KT 1/8SM FG VV004 16/16 A3005 RMK FG8 SLP175=
METAR CYGK 011000Z 01003KT 1/8SM FG VV002 17/17 A3004 RMK FG8 SLP171
DENSITY ALT 400FT=
LWIS CYGK 010900Z AUTO 03003KT 17/16 A3003=

TAF CYGK 011139Z 0112/0124 VRB03KT 1/4SM FG VV002 TEMPO 0112/0114 1SM
BR SCT006
FM011400 19008KT P6SM FEW008 SCT180 TEMPO 0114/0115 11/2SM BR
RMK NXT FCST BY 011400Z=
Your time UTC time
Weather data provided by Environment Canada and NAV CANADA